Time;durP1;ratioP1;P1;durP2;ratioP2;P2;SDS_P1;SDS_P2;PMS_P1;PMS_P2;Temp;Humidity;BMP_temperature;BMP_pressure;BME280_temperature;BME280_humidity;BME280_pressure;Samples;Min_cycle;Max_cycle;Signal;HPM_P1;HPM_P2
2023/06/10 00:01:57;;;;;;;12.43;8.23;;;;;;;23.51;62.12;100360.59;4987149;28;20125;-77
2023/06/10 00:04:42;;;;;;;14.10;8.00;;;;;;;23.52;61.75;100359.41;4995606;28;20053;-79
2023/06/10 00:07:27;;;;;;;9.30;5.95;;;;;;;23.53;61.57;100370.06;4999509;28;20049;-78
2023/06/10 00:10:12;;;;;;;10.35;8.07;;;;;;;23.48;62.26;100373.31;4990112;28;20528;-77
2023/06/10 00:12:57;;;;;;;17.00;8.10;;;;;;;23.42;62.50;100369.34;4991568;28;20057;-77
2023/06/10 00:15:41;;;;;;;;;;;;;;;23.35;62.87;100366.66;4999093;28;20061;-77
2023/06/10 00:18:26;;;;;;;10.82;8.90;;;;;;;23.29;63.16;100360.75;4988574;28;19914;-79
2023/06/10 00:21:13;;;;;;;11.95;9.80;;;;;;;23.28;63.32;100359.19;4997661;28;20049;-77
2023/06/10 00:23:57;;;;;;;12.85;8.90;;;;;;;23.20;63.49;100356.88;4998208;28;20049;-78
2023/06/10 00:26:42;;;;;;;17.48;9.25;;;;;;;23.12;64.02;100363.69;4999653;28;20053;-79
2023/06/10 00:29:27;;;;;;;12.40;9.43;;;;;;;23.12;63.43;100360.91;4996281;28;20457;-77
2023/06/10 00:32:12;;;;;;;;;;;;;;;23.18;64.04;100359.28;4984033;28;20057;-78
2023/06/10 00:34:56;;;;;;;12.35;10.13;;;;;;;23.15;63.97;100360.09;4993421;28;19914;-78
2023/06/10 00:37:42;;;;;;;17.50;10.23;;;;;;;23.11;64.26;100356.56;4989231;28;20054;-79
2023/06/10 00:40:27;;;;;;;15.55;10.32;;;;;;;23.11;63.82;100357.34;4983631;28;20114;-78
2023/06/10 00:43:12;;;;;;;18.52;10.95;;;;;;;23.13;64.21;100362.47;4995180;28;20051;-76
2023/06/10 00:45:56;;;;;;;12.45;9.60;;;;;;;23.04;64.55;100360.19;4996379;28;20042;-79
2023/06/10 00:48:43;;;;;;;13.85;9.70;;;;;;;23.01;64.57;100359.00;4979570;28;20057;-79
2023/06/10 00:51:28;;;;;;;16.40;10.23;;;;;;;22.97;64.27;100365.78;4984327;28;20528;-78
2023/06/10 00:54:13;;;;;;;14.07;9.07;;;;;;;22.96;64.47;100358.66;4992012;28;20489;-79
2023/06/10 00:57:01;;;;;;;12.75;10.23;;;;;;;23.05;64.68;100360.97;4992269;28;20405;-78
2023/06/10 00:59:48;;;;;;;13.63;10.25;;;;;;;23.02;65.19;100368.13;4979183;28;20046;-79
2023/06/10 01:02:33;;;;;;;12.40;10.00;;;;;;;23.03;64.73;100369.69;4996515;28;20046;-79
2023/06/10 01:05:18;;;;;;;11.27;9.32;;;;;;;23.00;64.29;100368.53;4993505;28;20409;-79
2023/06/10 01:08:18;;;;;;;12.95;9.65;;;;;;;23.11;64.16;100368.44;4986298;28;20069;-79
2023/06/10 01:11:09;;;;;;;12.43;9.95;;;;;;;23.13;64.54;100365.25;5000394;28;20524;-79
2023/06/10 01:13:55;;;;;;;17.98;10.82;;;;;;;23.13;64.71;100368.03;4993899;28;20046;-78
2023/06/10 01:16:42;;;;;;;17.05;11.05;;;;;;;23.09;64.54;100370.84;4993134;28;20050;-79
2023/06/10 01:19:30;;;;;;;13.32;10.73;;;;;;;23.00;65.11;100379.63;4995980;28;20054;-78
2023/06/10 01:22:16;;;;;;;12.13;9.13;;;;;;;22.92;65.63;100367.00;4993440;28;20042;-78
2023/06/10 01:25:03;;;;;;;11.23;9.30;;;;;;;22.84;66.00;100367.47;4984283;28;20070;-77
2023/06/10 01:27:50;;;;;;;14.73;11.63;;;;;;;22.81;66.26;100357.97;4982045;28;20057;-78
2023/06/10 01:30:47;;;;;;;13.27;8.80;;;;;;;22.85;66.28;100366.28;4998911;28;20509;-78
2023/06/10 01:33:37;;;;;;;12.13;9.82;;;;;;;22.90;66.33;100354.75;4992437;28;20049;-78
2023/06/10 01:36:24;;;;;;;13.38;10.50;;;;;;;22.92;66.21;100357.88;4995609;28;20045;-78
2023/06/10 01:39:11;;;;;;;15.38;10.43;;;;;;;22.91;65.97;100362.66;5003452;28;20054;-78
2023/06/10 01:41:56;;;;;;;15.27;11.63;;;;;;;22.90;66.76;100368.63;5000210;28;20502;-78
2023/06/10 01:44:41;;;;;;;19.27;12.77;;;;;;;22.78;67.26;100369.88;4993438;28;20429;-78
2023/06/10 01:47:27;;;;;;;17.60;12.25;;;;;;;22.73;67.39;100369.53;4997702;28;20042;-79
2023/06/10 01:50:12;;;;;;;14.95;10.98;;;;;;;22.73;67.12;100362.00;5002707;28;20421;-78
2023/06/10 01:52:58;;;;;;;11.10;9.48;;;;;;;22.81;66.66;100360.75;4999182;28;20043;-78
2023/06/10 01:55:42;;;;;;;14.25;11.23;;;;;;;22.78;67.04;100364.34;5055147;22;20529;-80
2023/06/10 01:58:27;;;;;;;15.73;12.00;;;;;;;22.74;67.22;100363.56;4995021;28;20034;-80
2023/06/10 02:01:13;;;;;;;13.85;10.23;;;;;;;22.71;67.35;100360.81;4998722;28;20050;-80
2023/06/10 02:03:57;;;;;;;16.80;11.98;;;;;;;22.69;67.47;100350.13;5000776;28;20042;-80
2023/06/10 02:06:42;;;;;;;17.83;10.75;;;;;;;22.69;67.68;100354.88;5000698;28;20055;-80
2023/06/10 02:09:27;;;;;;;12.25;10.40;;;;;;;22.67;67.60;100346.94;5002792;28;20498;-81
2023/06/10 02:12:12;;;;;;;15.93;12.35;;;;;;;22.68;67.86;100344.97;4994084;28;20046;-79
2023/06/10 02:14:57;;;;;;;13.13;9.77;;;;;;;22.64;68.09;100342.22;4992789;28;20043;-79
2023/06/10 02:17:41;;;;;;;13.90;10.23;;;;;;;22.57;68.34;100343.06;4983101;28;20166;-79
2023/06/10 02:20:26;;;;;;;13.75;10.88;;;;;;;22.54;68.39;100343.09;4980502;28;20046;-79
2023/06/10 02:23:11;;;;;;;25.77;11.15;;;;;;;22.49;68.64;100347.06;4985521;28;20051;-79
2023/06/10 02:25:56;;;;;;;23.50;11.85;;;;;;;22.46;68.94;100338.75;4980679;28;20047;-80
2023/06/10 02:28:43;;;;;;;12.05;9.55;;;;;;;22.51;69.00;100344.66;4981684;28;20042;-80
2023/06/10 02:31:28;;;;;;;13.05;9.98;;;;;;;22.57;68.41;100342.25;4978015;28;20049;-80
2023/06/10 02:34:14;;;;;;;16.63;11.07;;;;;;;22.57;67.48;100348.59;4977826;28;20058;-79
2023/06/10 02:36:59;;;;;;;15.73;11.18;;;;;;;22.64;67.01;100349.75;4973232;28;20039;-80
2023/06/10 02:39:44;;;;;;;14.48;11.05;;;;;;;22.68;66.60;100348.53;4979715;28;20047;-80
2023/06/10 02:42:29;;;;;;;11.52;8.80;;;;;;;22.70;66.43;100335.06;4983440;28;20046;-80
2023/06/10 02:45:14;;;;;;;11.05;9.35;;;;;;;22.84;65.99;100353.59;4949940;28;20062;-79
2023/06/10 02:48:01;;;;;;;13.77;9.85;;;;;;;22.80;66.05;100350.06;4986954;28;20053;-80
2023/06/10 02:50:47;;;;;;;13.07;9.07;;;;;;;22.72;65.81;100354.06;5002996;28;20072;-79
2023/06/10 02:53:40;;;;;;;13.10;10.98;;;;;;;22.66;65.86;100359.22;4990484;28;20046;-80
2023/06/10 02:56:29;;;;;;;15.45;11.68;;;;;;;22.64;65.99;100358.84;4971349;28;20054;-80
2023/06/10 02:59:17;;;;;;;14.60;10.90;;;;;;;22.62;66.45;100361.22;4969191;28;20046;-80
2023/06/10 03:02:03;;;;;;;10.00;8.93;;;;;;;22.58;67.11;100355.72;4976157;28;20039;-80
2023/06/10 03:04:53;;;;;;;14.18;10.18;;;;;;;22.59;66.98;100362.06;4979335;28;20046;-80
2023/06/10 03:07:38;;;;;;;18.52;12.80;;;;;;;22.59;67.38;100373.16;4968757;28;20046;-80
2023/06/10 03:10:24;;;;;;;28.50;19.08;;;;;;;22.58;66.97;100366.81;4967323;28;20498;-80
2023/06/10 03:13:09;;;;;;;29.48;18.88;;;;;;;22.59;66.81;100373.94;4965273;28;20418;-80
2023/06/10 03:15:55;;;;;;;26.95;18.42;;;;;;;22.57;66.64;100364.44;4979473;28;20050;-80
2023/06/10 03:18:42;;;;;;;19.40;15.32;;;;;;;22.47;66.95;100376.38;4979401;28;20038;-80
2023/06/10 03:21:27;;;;;;;20.30;14.23;;;;;;;22.44;67.63;100377.97;4979852;28;20047;-79
2023/06/10 03:24:15;;;;;;;20.58;15.73;;;;;;;22.48;68.08;100377.94;4982640;28;20502;-80
2023/06/10 03:27:00;;;;;;;19.95;14.73;;;;;;;22.48;67.85;100369.63;4979353;28;20039;-80
2023/06/10 03:29:45;;;;;;;22.25;16.30;;;;;;;22.48;67.93;100377.94;4978828;28;20046;-80
2023/06/10 03:32:30;;;;;;;23.30;14.95;;;;;;;22.51;67.60;100382.69;4981937;28;20042;-80
2023/06/10 03:35:17;;;;;;;17.80;10.93;;;;;;;22.51;67.76;100379.91;4979478;28;20486;-80
2023/06/10 03:38:02;;;;;;;14.52;10.77;;;;;;;22.39;66.75;100388.69;4976911;28;20043;-80
2023/06/10 03:40:47;;;;;;;14.88;11.02;;;;;;;22.38;66.69;100378.78;4968514;28;20051;-80
2023/06/10 03:43:32;;;;;;;12.85;10.85;;;;;;;22.41;66.29;100383.50;4980066;28;20589;-80
2023/06/10 03:46:17;;;;;;;13.50;10.88;;;;;;;22.41;66.33;100373.22;4978556;28;20514;-79
2023/06/10 03:49:03;;;;;;;13.80;11.48;;;;;;;22.42;66.84;100385.09;4982116;28;20046;-80
2023/06/10 03:51:49;;;;;;;15.48;12.23;;;;;;;22.41;67.60;100380.75;4980318;28;20051;-80
2023/06/10 03:54:35;;;;;;;19.95;14.50;;;;;;;22.40;67.85;100377.19;4981857;28;20038;-79
2023/06/10 03:57:22;;;;;;;22.88;15.50;;;;;;;22.40;68.63;100381.97;4993477;28;20050;-80
2023/06/10 04:00:12;;;;;;;15.63;12.25;;;;;;;22.33;69.22;100382.78;4998201;28;20046;-79
2023/06/10 04:03:01;;;;;;;12.50;10.57;;;;;;;22.30;68.03;100382.81;4998002;28;20038;-79
2023/06/10 04:05:50;;;;;;;14.23;10.05;;;;;;;22.21;66.39;100385.97;4998180;28;20038;-79
2023/06/10 04:08:36;;;;;;;13.30;10.70;;;;;;;22.21;66.78;100374.09;4991915;28;20047;-79
2023/06/10 04:11:20;;;;;;;17.27;12.15;;;;;;;22.18;67.76;100376.50;4976247;28;20047;-79
2023/06/10 04:14:05;;;;;;;15.50;11.85;;;;;;;22.22;67.37;100370.16;4978157;28;20038;-79
2023/06/10 04:16:51;;;;;;;13.75;11.00;;;;;;;22.17;68.19;100372.16;4979633;28;20441;-80
2023/06/10 04:19:36;;;;;;;16.23;10.73;;;;;;;22.24;67.71;100374.13;4964664;28;20433;-80
2023/06/10 04:22:23;;;;;;;17.17;9.82;;;;;;;22.30;67.78;100372.47;4981738;28;20046;-80
2023/06/10 04:25:09;;;;;;;13.93;10.02;;;;;;;22.29;67.64;100370.94;4979233;28;20053;-80
2023/06/10 04:27:54;;;;;;;12.95;9.75;;;;;;;22.32;67.38;100374.84;4975616;28;20042;-80
2023/06/10 04:30:39;;;;;;;12.48;10.73;;;;;;;22.31;66.74;100370.50;4990092;28;20166;-80
2023/06/10 04:33:25;;;;;;;13.48;11.45;;;;;;;22.18;68.89;100365.44;4976720;28;20050;-80
2023/06/10 04:36:10;;;;;;;14.82;10.88;;;;;;;22.20;68.01;100367.78;4978092;28;20038;-80
2023/06/10 04:38:55;;;;;;;14.07;10.98;;;;;;;22.25;68.44;100370.13;4981927;28;20050;-80
2023/06/10 04:41:41;;;;;;;19.13;12.18;;;;;;;22.31;68.03;100373.28;4980220;28;20042;-80
2023/06/10 04:44:26;;;;;;;12.48;11.15;;;;;;;22.32;67.99;100372.09;4962654;28;20043;-79
2023/06/10 04:47:11;;;;;;;12.88;11.32;;;;;;;22.33;67.64;100373.69;4981602;28;20109;-80
2023/06/10 04:49:57;;;;;;;10.52;9.07;;;;;;;22.32;67.80;100370.13;4966661;28;20047;-81
2023/06/10 04:52:41;;;;;;;16.33;11.82;;;;;;;22.32;67.11;100367.34;4978106;28;20066;-80
2023/06/10 04:55:27;;;;;;;18.08;11.85;;;;;;;22.11;69.29;100371.00;4963971;28;20038;-81
2023/06/10 04:58:11;;;;;;;16.95;10.82;;;;;;;22.22;68.56;100365.41;4978284;28;20429;-81
2023/06/10 05:00:56;;;;;;;17.90;11.57;;;;;;;22.18;70.17;100365.44;4963728;28;20047;-81
2023/06/10 05:03:41;;;;;;;16.45;11.63;;;;;;;22.12;70.26;100364.25;4995041;28;20038;-81
2023/06/10 05:06:26;;;;;;;13.88;11.73;;;;;;;22.11;70.44;100365.44;4985215;28;20047;-83
2023/06/10 05:09:10;;;;;;;10.52;8.93;;;;;;;22.30;69.59;100366.94;4997723;28;20058;-80
2023/06/10 05:11:55;;;;;;;12.40;10.05;;;;;;;22.29;69.43;100370.13;4996327;28;20441;-79
2023/06/10 05:14:41;;;;;;;13.60;10.30;;;;;;;22.38;69.04;100367.72;4999761;28;20038;-79
2023/06/10 05:17:25;;;;;;;12.80;9.63;;;;;;;22.37;69.20;100371.66;4973679;28;20438;-80
2023/06/10 05:20:11;;;;;;;14.15;10.82;;;;;;;22.28;68.80;100374.09;4994733;28;20153;-79
2023/06/10 05:22:56;;;;;;;15.20;11.00;;;;;;;22.18;68.65;100373.75;4997412;28;20042;-79
2023/06/10 05:25:41;;;;;;;12.77;8.57;;;;;;;22.27;67.63;100384.38;4995437;28;20042;-79
2023/06/10 05:28:26;;;;;;;10.20;8.07;;;;;;;22.39;65.86;100383.94;4996896;28;20512;-80
2023/06/10 05:31:11;;;;;;;12.60;8.85;;;;;;;22.41;66.47;100386.28;4979235;28;20053;-79
2023/06/10 05:33:56;;;;;;;10.90;8.23;;;;;;;22.38;65.33;100384.34;4977893;28;20105;-80
2023/06/10 05:36:41;;;;;;;10.48;7.40;;;;;;;22.47;64.02;100379.94;4978918;28;20049;-79
2023/06/10 05:39:26;;;;;;;8.90;7.95;;;;;;;22.53;63.30;100383.06;4975950;28;20058;-79
2023/06/10 05:42:11;;;;;;;10.70;6.85;;;;;;;22.39;63.90;100380.38;4977515;28;20533;-80
2023/06/10 05:44:56;;;;;;;7.45;5.97;;;;;;;22.43;63.08;100375.59;4972955;28;20057;-80
2023/06/10 05:47:41;;;;;;;7.20;5.75;;;;;;;22.35;62.45;100374.06;4975283;28;20050;-80
2023/06/10 05:50:26;;;;;;;9.43;6.63;;;;;;;22.34;62.53;100370.50;4975600;28;20066;-78
2023/06/10 05:53:14;;;;;;;25.42;6.45;;;;;;;22.43;62.50;100370.06;4966407;28;20534;-79
2023/06/10 05:55:59;;;;;;;7.57;6.00;;;;;;;22.37;62.42;100368.91;4969327;28;20046;-79
2023/06/10 05:58:44;;;;;;;9.82;6.00;;;;;;;22.42;61.79;100368.47;4970969;28;20062;-79
2023/06/10 06:01:29;;;;;;;8.07;6.60;;;;;;;22.47;61.58;100370.81;4972016;28;20065;-78
2023/06/10 06:04:14;;;;;;;9.38;6.18;;;;;;;22.47;61.94;100370.81;4962382;28;20511;-79
2023/06/10 06:06:59;;;;;;;8.40;6.43;;;;;;;22.44;62.60;100372.44;4967390;28;20438;-79
2023/06/10 06:09:44;;;;;;;12.98;7.47;;;;;;;22.42;62.82;100368.47;4956264;28;20529;-79
2023/06/10 06:12:28;;;;;;;;;;;;;;;22.43;62.96;100381.16;4971599;28;20049;-79
2023/06/10 06:15:13;;;;;;;8.57;6.07;;;;;;;22.38;63.09;100374.03;4975385;28;19914;-79
2023/06/10 06:17:58;;;;;;;8.63;6.35;;;;;;;22.38;63.63;100368.50;4969817;28;20070;-79
2023/06/10 06:20:42;;;;;;;9.48;7.28;;;;;;;22.42;64.62;100374.81;4981496;28;20517;-79
2023/06/10 06:23:27;;;;;;;10.45;7.63;;;;;;;22.37;64.82;100380.78;4972888;28;20521;-79
2023/06/10 06:26:12;;;;;;;10.65;7.97;;;;;;;22.41;64.13;100383.50;4971107;28;20042;-79
2023/06/10 06:28:56;;;;;;;11.00;8.73;;;;;;;22.39;65.01;100383.94;4968677;28;20054;-80
2023/06/10 06:31:41;;;;;;;12.43;8.02;;;;;;;22.43;65.28;100386.69;4962931;28;20053;-80
2023/06/10 06:34:26;;;;;;;7.97;6.97;;;;;;;22.50;65.88;100392.19;4974055;28;20041;-80
2023/06/10 06:37:11;;;;;;;12.43;8.73;;;;;;;22.48;66.45;100389.03;4979274;28;20053;-80
2023/06/10 06:39:59;;;;;;;15.40;10.02;;;;;;;22.49;65.90;100385.88;4986807;28;20066;-80
2023/06/10 06:42:44;;;;;;;12.55;9.65;;;;;;;22.52;65.58;100381.50;4977057;28;20410;-80
2023/06/10 06:45:50;;;;;;;12.25;9.38;;;;;;;22.47;65.94;100381.91;4963178;28;20529;-80
2023/06/10 06:48:35;;;;;;;10.00;7.97;;;;;;;22.53;66.11;100389.41;4969424;28;20544;-80
2023/06/10 06:51:19;;;;;;;14.50;10.23;;;;;;;22.50;66.76;100387.44;4978577;28;20065;-80
2023/06/10 06:54:05;;;;;;;16.10;10.25;;;;;;;22.52;67.07;100379.50;4981867;28;20050;-80
2023/06/10 06:56:50;;;;;;;11.95;8.57;;;;;;;22.52;67.58;100390.59;4978473;28;20039;-80
2023/06/10 06:59:35;;;;;;;15.68;10.80;;;;;;;22.55;67.51;100395.31;4977058;28;20058;-80
2023/06/10 07:02:20;;;;;;;16.98;9.23;;;;;;;22.58;68.33;100397.28;4973752;28;20422;-79
2023/06/10 07:05:05;;;;;;;13.27;10.63;;;;;;;22.61;68.44;100392.91;4981456;28;20054;-79
2023/06/10 07:07:54;;;;;;;17.00;12.93;;;;;;;22.78;67.46;100394.84;4979420;28;20418;-80
2023/06/10 07:10:39;;;;;;;18.15;12.18;;;;;;;22.76;68.72;100397.22;4986279;28;20043;-79
2023/06/10 07:13:24;;;;;;;17.67;12.32;;;;;;;22.85;67.89;100400.34;4972372;28;20039;-81
2023/06/10 07:16:09;;;;;;;13.25;9.70;;;;;;;22.98;66.48;100395.09;4978737;28;20039;-80
2023/06/10 07:18:54;;;;;;;17.25;11.20;;;;;;;22.93;68.45;100392.75;4974978;28;20524;-81
2023/06/10 07:21:39;;;;;;;16.13;12.43;;;;;;;22.96;68.41;100395.50;4965031;28;20038;-80
2023/06/10 07:24:24;;;;;;;25.67;11.50;;;;;;;23.07;67.22;100391.84;4975991;28;20038;-81
2023/06/10 07:27:10;;;;;;;19.08;13.55;;;;;;;23.24;67.18;100391.72;4970261;28;20419;-82
2023/06/10 07:29:54;;;;;;;24.50;12.90;;;;;;;23.53;66.61;100383.97;4979167;28;20042;-83
2023/06/10 07:32:39;;;;;;;22.92;13.75;;;;;;;23.66;66.21;100389.78;4968029;28;20039;-83
2023/06/10 07:35:24;;;;;;;26.80;14.82;;;;;;;23.80;65.07;100390.44;4972006;28;20043;-80
2023/06/10 07:38:09;;;;;;;18.38;12.95;;;;;;;23.77;65.39;100382.16;4975282;28;20039;-80
2023/06/10 07:40:54;;;;;;;20.83;13.07;;;;;;;23.82;65.40;100390.78;4971994;28;20051;-80
2023/06/10 07:43:39;;;;;;;19.63;11.93;;;;;;;23.92;64.65;100393.91;4970873;28;20043;-80
2023/06/10 07:46:24;;;;;;;15.07;10.75;;;;;;;24.12;64.02;100394.84;4976799;28;20047;-80
2023/06/10 07:49:09;;;;;;;15.25;11.52;;;;;;;24.21;63.40;100386.81;4974905;28;20043;-80
2023/06/10 07:51:55;;;;;;;16.55;11.02;;;;;;;24.18;63.16;100376.53;4977877;28;20517;-80
2023/06/10 07:54:40;;;;;;;18.42;11.25;;;;;;;24.03;63.52;100381.44;4998550;22;20082;-77
2023/06/10 07:57:24;;;;;;;16.20;11.07;;;;;;;23.96;63.96;100370.44;4959655;28;20046;-77
2023/06/10 08:00:10;;;;;;;16.52;10.05;;;;;;;24.10;63.79;100370.25;4976385;28;20047;-77
2023/06/10 08:02:58;;;;;;;18.25;10.68;;;;;;;24.11;63.31;100368.25;4975773;28;20413;-78
2023/06/10 08:05:42;;;;;;;;;;;;;;;24.26;63.03;100372.47;4974519;28;20042;-79
2023/06/10 08:08:26;;;;;;;29.85;10.80;;;;;;;24.40;63.00;100379.81;4952081;28;20305;-78
2023/06/10 08:11:11;;;;;;;;;;;;;;;24.32;63.41;100372.81;4972331;28;20409;-78
2023/06/10 08:13:55;;;;;;;17.58;10.45;;;;;;;24.36;62.36;100376.31;4968430;28;19914;-79
2023/06/10 08:16:45;;;;;;;16.83;9.48;;;;;;;24.34;63.00;100371.16;4970981;28;20043;-83
2023/06/10 08:19:30;;;;;;;18.38;8.00;;;;;;;23.81;63.51;100380.91;4966477;28;20050;-78
2023/06/10 08:22:15;;;;;;;13.57;8.18;;;;;;;23.42;65.32;100383.22;4975696;28;20050;-78
2023/06/10 08:25:00;;;;;;;13.63;7.93;;;;;;;23.42;65.15;100381.25;4974875;28;20117;-78
2023/06/10 08:27:45;;;;;;;7.90;5.27;;;;;;;23.80;63.51;100379.31;4970705;28;20050;-82
2023/06/10 08:30:30;;;;;;;;;;;;;;;23.17;66.79;100377.09;4977399;28;20050;-80
2023/06/10 08:33:14;;;;;;;;;;;;;;;23.65;67.80;100380.69;4970890;28;19914;-78
2023/06/10 08:35:59;;;;;;;;;;;;;;;23.95;68.93;100381.94;4966948;28;19925;-77
2023/06/10 08:38:43;;;;;;;;;;;;;;;24.12;69.14;100389.28;4961695;28;20393;-80
2023/06/10 08:41:28;;;;;;;;;;;;;;;24.25;67.42;100382.00;4966249;28;19914;-78
2023/06/10 08:44:18;;;;;;;;;;;;;;;24.31;65.18;100385.13;4960710;28;19919;-78
2023/06/10 08:47:04;;;;;;;;;;;;;;;24.44;65.72;100383.34;4961974;28;19914;-79
2023/06/10 08:49:49;;;;;;;;;;;;;;;24.48;63.82;100386.88;4967433;28;20389;-77
2023/06/10 08:52:37;;;;;;;;;;;;;;;24.60;62.05;100392.66;4977993;28;20528;-78
2023/06/10 08:55:26;;;;;;;;;;;;;;;24.68;59.28;100380.25;4961867;28;19914;-78
2023/06/10 08:58:12;;;;;;;;;;;;;;;24.68;59.99;100383.03;4982664;28;19914;-78
2023/06/10 09:00:59;;;;;;;;;;;;;;;24.84;59.20;100381.59;4989002;28;19913;-78
2023/06/10 09:03:43;;;;;;;;;;;;;;;25.13;58.28;100374.41;4992372;28;20383;-77
2023/06/10 09:06:28;;;;;;;;;;;;;;;25.28;57.12;100381.31;4968075;28;19925;-78
2023/06/10 09:09:13;;;;;;;;;;;;;;;25.43;55.44;100381.84;4966661;28;20381;-77
2023/06/10 09:11:58;;;;;;;;;;;;;;;25.47;54.64;100383.38;4961502;28;19913;-78
2023/06/10 09:14:42;;;;;;;;;;;;;;;25.32;55.27;100387.59;4964261;28;19915;-79
2023/06/10 09:17:28;;;;;;;;;;;;;;;25.27;55.43;100388.09;4968389;28;19914;-79
2023/06/10 09:20:12;;;;;;;;;;;;;;;25.23;55.03;100390.16;4960334;28;20386;-78
2023/06/10 09:22:57;;;;;;;;;;;;;;;24.89;55.09;100387.50;4960435;28;20457;-79
2023/06/10 09:25:41;;;;;;;;;;;;;;;24.90;55.14;100391.06;4973386;28;20374;-79
2023/06/10 09:28:26;;;;;;;;;;;;;;;24.86;54.95;100393.09;4973416;28;19914;-78
2023/06/10 09:31:11;;;;;;;;;;;;;;;24.92;53.86;100385.88;4963229;28;19930;-77
2023/06/10 09:34:04;;;;;;;;;;;;;;;25.07;53.31;100387.22;4973142;28;19914;-78
2023/06/10 09:36:49;;;;;;;;;;;;;;;24.81;54.16;100394.34;4965065;28;19914;-77
2023/06/10 09:39:33;;;;;;;;;;;;;;;24.78;53.70;100391.63;4963051;28;19914;-78
2023/06/10 09:42:18;;;;;;;;;;;;;;;24.97;52.81;100382.63;4972409;28;19914;-78
2023/06/10 09:45:03;;;;;;;;;;;;;;;24.93;51.16;100393.03;4972619;28;19918;-77
2023/06/10 09:47:51;;;;;;;;;;;;;;;25.01;52.88;100383.34;4973640;28;19922;-78
2023/06/10 09:50:46;;;;;;;;;;;;;;;25.21;53.08;100386.22;4966567;28;19914;-77
2023/06/10 09:53:33;;;;;;;;;;;;;;;25.23;52.78;100390.16;4973030;28;19914;-78
2023/06/10 09:56:17;;;;;;;;;;;;;;;25.09;52.14;100391.16;4976427;28;19914;-78
2023/06/10 09:59:03;;;;;;;;;;;;;;;25.02;51.60;100385.72;4976234;28;20405;-78
2023/06/10 10:01:54;;;;;;;;;;;;;;;25.01;51.32;100394.47;4980670;28;20004;-76
2023/06/10 10:04:39;;;;;;;;;;;;;;;24.97;51.60;100390.97;4976243;28;20148;-77
2023/06/10 10:07:23;;;;;;;;;;;;;;;25.02;50.88;100382.94;4978275;28;19921;-76
2023/06/10 10:10:08;;;;;;;;;;;;;;;25.04;51.16;100390.88;4970682;28;19922;-77
2023/06/10 10:12:56;;;;;;;;;;;;;;;25.03;51.32;100392.88;4977814;28;19914;-78
2023/06/10 10:15:41;;;;;;;;;;;;;;;25.20;50.57;100393.75;4969156;28;19913;-78
2023/06/10 10:18:30;;;;;;;;;;;;;;;25.30;50.27;100390.03;4963864;28;19914;-78
2023/06/10 10:21:16;;;;;;;;;;;;;;;25.51;50.10;100383.28;4964526;28;19913;-77
2023/06/10 10:24:00;;;;;;;;;;;;;;;25.76;49.72;100378.09;4975934;28;20401;-76
2023/06/10 10:26:46;;;;;;;;;;;;;;;26.46;47.33;100386.28;4978071;28;19918;-76
2023/06/10 10:29:36;;;;;;;;;;;;;;;27.12;46.33;100382.38;4979698;28;19918;-79
2023/06/10 10:32:24;;;;;;;;;;;;;;;27.38;45.56;100374.97;4974154;28;19914;-78
2023/06/10 10:35:09;;;;;;;;;;;;;;;26.70;47.10;100375.78;4968488;28;20321;-78
2023/06/10 10:37:54;;;;;;;;;;;;;;;26.48;48.13;100378.25;4967651;28;19922;-78
2023/06/10 10:40:39;;;;;;;;;;;;;;;26.51;47.98;100368.25;4970709;28;19913;-78
2023/06/10 10:43:23;;;;;;;;;;;;;;;26.80;47.60;100363.59;4989596;28;19914;-77
2023/06/10 10:46:12;;;;;;;;;;;;;;;27.11;47.05;100362.06;4987051;28;19918;-79
2023/06/10 10:48:57;;;;;;;;;;;;;;;27.58;45.68;100356.84;4958163;28;19918;-76
2023/06/10 10:51:58;;;;;;;;;;;;;;;27.59;46.02;100366.03;4965879;28;19914;-79
2023/06/10 10:54:44;;;;;;;;;;;;;;;28.09;44.34;100362.63;4977650;28;20305;-77
2023/06/10 10:57:29;;;;;;;;;;;;;;;28.31;43.77;100376.81;4967577;28;19914;-77
2023/06/10 11:00:24;;;;;;;;;;;;;;;28.69;42.74;100377.66;4986881;28;19914;-79
2023/06/10 11:03:13;;;;;;;;;;;;;;;29.63;40.02;100386.19;4963027;28;20804;-79
2023/06/10 11:05:58;;;;;;;;;;;;;;;29.85;39.12;100383.41;4970837;28;20297;-79
2023/06/10 11:08:43;;;;;;;;;;;;;;;29.33;40.11;100384.81;4978026;28;19914;-79
2023/06/10 11:11:28;;;;;;;;;;;;;;;29.43;40.10;100385.69;4967388;28;20563;-77
2023/06/10 11:14:12;;;;;;;;;;;;;;;29.01;40.92;100375.84;4975516;28;20369;-76
2023/06/10 11:16:57;;;;;;;;;;;;;;;28.28;43.54;100378.50;4976107;28;19914;-78
2023/06/10 11:19:46;;;;;;;;;;;;;;;28.11;42.93;100365.78;4970152;28;19913;-77
2023/06/10 11:22:31;;;;;;;;;;;;;;;27.10;45.46;100366.06;4981284;28;19922;-80
2023/06/10 11:25:15;;;;;;;;;;;;;;;26.66;46.78;100359.13;4985885;28;19917;-79
2023/06/10 11:28:00;;;;;;;;;;;;;;;26.58;46.72;100360.50;4965588;28;19914;-78
2023/06/10 11:30:45;;;;;;;;;;;;;;;26.35;47.91;100357.81;4983454;28;19914;-78
2023/06/10 11:33:30;;;;;;;;;;;;;;;26.14;48.67;100359.03;4968018;28;20205;-77
2023/06/10 11:36:14;;;;;;;;;;;;;;;26.12;48.58;100355.88;4969361;28;19921;-76
2023/06/10 11:39:00;;;;;;;;;;;;;;;26.15;48.48;100354.25;4965546;28;19933;-79
2023/06/10 11:41:45;;;;;;;;;;;;;;;26.36;48.02;100349.00;4963446;28;19914;-78
2023/06/10 11:44:30;;;;;;;;;;;;;;;26.72;47.06;100356.56;4969901;28;20377;-79
2023/06/10 11:47:14;;;;;;;;;;;;;;;26.92;46.69;100357.31;4965630;28;19914;-78
2023/06/10 11:49:59;;;;;;;;;;;;;;;26.79;46.86;100360.00;4966023;28;20285;-78
2023/06/10 11:52:43;;;;;;;;;;;;;;;26.77;46.72;100368.00;4963269;28;19922;-77
2023/06/10 11:55:47;;;;;;;;;;;;;;;26.80;46.14;100358.00;4972493;28;19913;-77
2023/06/10 11:58:31;;;;;;;;;;;;;;;26.78;46.36;100363.22;4967462;28;20393;-77
2023/06/10 12:01:19;;;;;;;;;;;;;;;26.85;45.77;100351.91;4981038;28;20297;-78
2023/06/10 12:04:05;;;;;;;;;;;;;;;26.85;46.25;100346.31;4966548;28;20300;-77
2023/06/10 12:06:51;;;;;;;;;;;;;;;26.29;46.95;100338.03;4977192;28;19932;-77
2023/06/10 12:09:36;;;;;;;6.80;3.22;;;;;;;25.87;49.17;100336.09;4976341;28;20426;-77
2023/06/10 12:12:21;;;;;;;9.52;2.50;;;;;;;25.73;50.03;100336.38;4969353;28;20069;-80
2023/06/10 12:15:07;;;;;;;4.65;1.92;;;;;;;25.62;49.39;100325.44;4957552;28;20049;-80
2023/06/10 12:17:52;;;;;;;8.13;1.60;;;;;;;26.01;49.27;100316.28;4964259;28;20078;-81
2023/06/10 12:20:37;;;;;;;4.80;2.58;;;;;;;25.49;49.45;100303.00;4971437;28;20053;-80
2023/06/10 12:23:23;;;;;;;10.48;2.17;;;;;;;26.82;47.14;100296.94;4985517;28;20041;-81
2023/06/10 12:26:08;;;;;;;17.55;3.38;;;;;;;28.50;43.48;100300.28;4955464;28;20046;-79
2023/06/10 12:28:53;;;;;;;5.13;2.10;;;;;;;29.50;41.34;100284.56;4972885;28;20045;-81
2023/06/10 12:32:07;;;;;;;6.07;2.42;;;;;;;28.32;43.49;100292.47;4986254;28;20045;-83
2023/06/10 12:35:04;;;;;;;10.82;2.42;;;;;;;26.46;47.78;100276.72;4993974;28;20049;-82
2023/06/10 12:38:06;;;;;;;6.90;2.15;;;;;;;25.78;49.90;100283.75;4972965;28;20694;-81
2023/06/10 12:40:51;;;;;;;4.63;2.03;;;;;;;25.42;50.34;100283.63;4973393;28;20049;-82
2023/06/10 12:43:39;;;;;;;4.00;2.33;;;;;;;25.18;51.12;100287.66;4959798;28;20054;-83
2023/06/10 12:46:24;;;;;;;3.17;2.15;;;;;;;25.11;49.85;100287.78;4973466;28;20422;-83
2023/06/10 12:49:28;;;;;;;4.07;1.95;;;;;;;25.24;50.30;100291.53;4979616;28;20050;-83
2023/06/10 12:52:13;;;;;;;7.77;2.77;;;;;;;24.94;51.71;100275.72;4965956;28;20053;-82
2023/06/10 12:54:58;;;;;;;6.28;2.13;;;;;;;24.84;52.50;100275.91;4963455;28;20054;-82
2023/06/10 12:57:50;;;;;;;4.60;1.85;;;;;;;24.82;52.80;100269.97;4978908;28;20050;-84
2023/06/10 13:00:35;;;;;;;9.60;2.00;;;;;;;24.59;53.29;100277.06;4973864;28;20053;-84
2023/06/10 13:03:20;;;;;;;3.00;1.90;;;;;;;24.82;51.39;100281.09;4979332;28;20077;-82
2023/06/10 13:06:06;;;;;;;7.00;2.42;;;;;;;24.79;52.82;100279.94;4960430;28;20053;-83